Time;durP1;ratioP1;P1;durP2;ratioP2;P2;SDS_P1;SDS_P2;PMS_P1;PMS_P2;Temp;Humidity;BMP_temperature;BMP_pressure;BME280_temperature;BME280_humidity;BME280_pressure;Samples;Min_cycle;Max_cycle;Signal;HPM_P1;HPM_P2
2023/12/27 00:00:20;;;;;;;9.07;3.15;;;6.10;99.90;;;;;;2074221;28;20539;-79
2023/12/27 00:01:21;;;;;;;8.25;3.20;;;6.10;99.90;;;;;;2076350;28;20083;-76
2023/12/27 00:02:22;;;;;;;6.10;2.97;;;6.00;99.90;;;;;;2076388;28;20045;-78
2023/12/27 00:03:22;;;;;;;6.82;3.00;;;6.00;99.90;;;;;;2073664;28;20052;-78
2023/12/27 00:04:23;;;;;;;8.65;2.90;;;6.00;99.90;;;;;;2075880;28;20036;-77
2023/12/27 00:05:23;;;;;;;9.80;3.05;;;5.90;99.90;;;;;;2071574;28;20032;-76
2023/12/27 00:06:24;;;;;;;6.40;2.67;;;6.00;99.90;;;;;;2070865;28;20018;-78
2023/12/27 00:07:24;;;;;;;7.45;2.67;;;5.90;99.90;;;;;;2066657;28;20056;-77
2023/12/27 00:08:25;;;;;;;6.57;2.58;;;6.00;99.90;;;;;;2079383;28;20028;-78
2023/12/27 00:09:26;;;;;;;9.70;2.70;;;6.00;99.90;;;;;;2077150;28;20036;-79
2023/12/27 00:10:26;;;;;;;5.35;2.47;;;6.00;99.90;;;;;;2080143;28;20036;-76
2023/12/27 00:11:27;;;;;;;5.85;2.63;;;6.00;99.90;;;;;;2078278;28;20052;-76
2023/12/27 00:12:27;;;;;;;5.88;2.25;;;6.00;99.90;;;;;;2068676;28;20026;-76
2023/12/27 00:13:28;;;;;;;8.02;2.40;;;6.00;99.90;;;;;;2075765;28;20021;-78
2023/12/27 00:14:29;;;;;;;5.70;2.55;;;6.00;99.90;;;;;;2080396;28;20483;-78
2023/12/27 00:15:29;;;;;;;6.80;2.53;;;6.00;99.90;;;;;;2078168;28;20025;-78
2023/12/27 00:16:30;;;;;;;6.90;2.40;;;6.00;99.90;;;;;;2080806;28;20404;-77
2023/12/27 00:17:31;;;;;;;9.30;2.28;;;6.00;99.90;;;;;;2079779;28;20063;-78
2023/12/27 00:18:31;;;;;;;7.85;2.70;;;6.00;99.90;;;;;;2078067;28;20044;-77
2023/12/27 00:19:32;;;;;;;6.68;2.28;;;6.00;99.90;;;;;;2088939;28;20053;-79
2023/12/27 00:20:33;;;;;;;7.40;2.30;;;6.00;99.90;;;;;;2088975;28;20028;-80
2023/12/27 00:21:34;;;;;;;7.28;2.70;;;6.00;99.90;;;;;;2078315;28;20021;-75
2023/12/27 00:22:34;;;;;;;7.05;2.50;;;6.00;99.90;;;;;;2073090;28;20032;-78
2023/12/27 00:23:35;;;;;;;7.63;2.60;;;6.00;99.90;;;;;;2072079;28;20030;-75
2023/12/27 00:24:36;;;;;;;10.20;2.60;;;6.00;99.90;;;;;;2071368;28;20080;-77
2023/12/27 00:25:36;;;;;;;7.45;2.58;;;6.00;99.90;;;;;;2075612;28;20507;-77
2023/12/27 00:26:37;;;;;;;6.88;2.55;;;6.00;99.90;;;;;;2079225;28;20025;-77
2023/12/27 00:27:37;;;;;;;8.77;2.75;;;6.00;99.90;;;;;;2079073;28;20038;-77
2023/12/27 00:28:38;;;;;;;5.60;2.60;;;6.00;99.90;;;;;;2071236;28;20021;-76
2023/12/27 00:29:39;;;;;;;6.90;2.55;;;6.00;99.90;;;;;;2067658;28;20037;-79
2023/12/27 00:30:39;;;;;;;5.45;2.10;;;6.00;99.90;;;;;;2078413;28;20041;-78
2023/12/27 00:31:40;;;;;;;6.35;2.50;;;6.00;99.90;;;;;;2081687;28;20033;-78
2023/12/27 00:32:40;;;;;;;9.95;2.70;;;6.10;99.90;;;;;;2076234;28;20022;-77
2023/12/27 00:33:41;;;;;;;5.75;2.30;;;6.00;99.90;;;;;;2078844;28;20503;-76
2023/12/27 00:34:42;;;;;;;6.35;2.20;;;6.00;99.90;;;;;;2087714;28;20028;-77
2023/12/27 00:35:42;;;;;;;6.70;2.45;;;6.00;99.90;;;;;;2084394;28;20052;-76
2023/12/27 00:36:44;;;;;;;9.43;2.58;;;6.00;99.90;;;;;;2078234;28;20105;-77
2023/12/27 00:37:45;;;;;;;6.88;2.90;;;6.00;99.90;;;;;;2079504;28;20017;-78
2023/12/27 00:38:45;;;;;;;6.40;2.53;;;6.00;99.90;;;;;;2075223;28;20040;-77
2023/12/27 00:39:47;;;;;;;8.07;2.42;;;6.00;99.90;;;;;;2075125;28;20104;-75
2023/12/27 00:40:48;;;;;;;6.85;2.60;;;6.00;99.90;;;;;;2079341;28;20495;-75
2023/12/27 00:41:49;;;;;;;6.43;2.40;;;6.00;99.90;;;;;;2087086;28;20017;-76
2023/12/27 00:42:49;;;;;;;7.47;2.50;;;6.00;99.90;;;;;;2076790;28;20029;-75
2023/12/27 00:43:50;;;;;;;5.63;2.38;;;6.00;99.90;;;;;;2079309;28;20103;-77
2023/12/27 00:44:51;;;;;;;8.80;2.50;;;6.00;99.90;;;;;;2077465;28;20104;-76
2023/12/27 00:45:52;;;;;;;6.75;2.22;;;6.00;99.90;;;;;;2086457;28;20083;-78
2023/12/27 00:46:52;;;;;;;7.95;2.20;;;6.00;99.90;;;;;;2088826;28;20152;-77
2023/12/27 00:47:53;;;;;;;6.57;2.30;;;6.00;99.90;;;;;;2078072;28;20034;-77
2023/12/27 00:48:53;;;;;;;8.98;2.53;;;5.90;99.90;;;;;;2080393;28;20061;-77
2023/12/27 00:49:54;;;;;;;6.05;2.50;;;5.90;99.90;;;;;;2078441;28;20025;-77
2023/12/27 00:50:57;;;;;;;6.78;2.33;;;5.90;99.90;;;;;;2081697;28;20597;-77
2023/12/27 00:51:58;;;;;;;7.90;2.45;;;5.90;99.90;;;;;;2079930;28;20116;-78
2023/12/27 00:52:58;;;;;;;7.40;2.22;;;5.90;99.90;;;;;;2078410;28;20078;-78
2023/12/27 00:53:59;;;;;;;7.32;2.40;;;5.90;99.90;;;;;;2076094;28;20038;-76
2023/12/27 00:55:00;;;;;;;7.28;2.50;;;5.90;99.90;;;;;;2075596;28;20116;-76
2023/12/27 00:56:01;;;;;;;5.63;2.40;;;5.90;99.90;;;;;;2074727;28;20044;-76
2023/12/27 00:57:02;;;;;;;8.63;2.30;;;5.90;99.90;;;;;;2075456;28;20033;-76
2023/12/27 00:58:03;;;;;;;7.03;2.40;;;5.90;99.90;;;;;;2075458;28;20492;-76
2023/12/27 00:59:03;;;;;;;7.45;2.38;;;5.80;99.90;;;;;;2075224;28;20029;-77
2023/12/27 01:00:04;;;;;;;8.73;2.28;;;5.80;99.90;;;;;;2080005;28;20322;-75
2023/12/27 01:01:05;;;;;;;5.18;2.20;;;5.80;99.90;;;;;;2079683;28;20077;-75
2023/12/27 01:02:08;;;;;;;12.43;2.78;;;5.80;99.90;;;;;;2079531;28;20115;-75
2023/12/27 01:03:09;;;;;;;8.32;2.40;;;5.80;99.90;;;;;;2087059;28;20013;-75
2023/12/27 01:04:09;;;;;;;7.30;2.30;;;5.80;99.90;;;;;;2079967;28;20082;-74
2023/12/27 01:05:10;;;;;;;8.63;2.30;;;5.80;99.90;;;;;;2076020;28;20502;-76
2023/12/27 01:06:11;;;;;;;9.20;2.38;;;5.80;99.90;;;;;;2079312;28;20732;-76
2023/12/27 01:07:11;;;;;;;8.80;2.20;;;5.90;99.90;;;;;;2074870;28;20030;-75
2023/12/27 01:08:12;;;;;;;7.15;2.20;;;5.80;99.90;;;;;;2075840;28;20107;-76
2023/12/27 01:09:12;;;;;;;8.30;2.30;;;5.80;99.90;;;;;;2078385;28;20096;-76
2023/12/27 01:10:14;;;;;;;6.63;2.10;;;5.80;99.90;;;;;;2078996;28;20614;-76
2023/12/27 01:11:15;;;;;;;9.68;2.45;;;5.80;99.90;;;;;;2076783;28;20053;-75
2023/12/27 01:12:16;;;;;;;5.65;2.10;;;5.80;99.90;;;;;;2078705;28;20857;-74
2023/12/27 01:13:16;;;;;;;5.85;2.40;;;5.80;99.90;;;;;;2078904;28;20040;-75
2023/12/27 01:14:19;;;;;;;6.88;2.25;;;5.80;99.90;;;;;;2076203;28;20037;-75
2023/12/27 01:15:19;;;;;;;6.72;2.30;;;5.70;99.90;;;;;;2077321;28;20068;-75
2023/12/27 01:16:20;;;;;;;10.18;2.72;;;5.70;99.90;;;;;;2079253;28;20049;-75
2023/12/27 01:17:20;;;;;;;7.43;2.30;;;5.70;99.90;;;;;;2076645;28;20037;-76
2023/12/27 01:18:21;;;;;;;10.68;2.65;;;5.70;99.90;;;;;;2076730;28;20438;-75
2023/12/27 01:19:22;;;;;;;6.65;2.17;;;5.70;99.90;;;;;;2078848;28;20032;-75
2023/12/27 01:20:23;;;;;;;7.88;2.35;;;5.70;99.90;;;;;;2077029;28;20125;-75
2023/12/27 01:21:24;;;;;;;7.25;2.15;;;5.70;99.90;;;;;;2077265;28;20033;-75
2023/12/27 01:22:24;;;;;;;7.60;2.30;;;5.70;99.90;;;;;;2079666;28;20028;-76
2023/12/27 01:23:25;;;;;;;8.10;2.30;;;5.70;99.90;;;;;;2086591;28;20455;-77
2023/12/27 01:24:25;;;;;;;6.20;2.03;;;5.70;99.90;;;;;;2085413;28;20099;-77
2023/12/27 01:25:26;;;;;;;4.80;1.98;;;5.70;99.90;;;;;;2069219;28;20050;-77
2023/12/27 01:26:27;;;;;;;7.15;2.20;;;5.70;99.90;;;;;;2074232;28;20569;-76
2023/12/27 01:27:27;;;;;;;7.25;2.40;;;5.70;99.90;;;;;;2078098;28;20044;-76
2023/12/27 01:28:28;;;;;;;6.57;2.25;;;5.70;99.90;;;;;;2077899;28;20080;-77
2023/12/27 01:29:28;;;;;;;6.78;2.10;;;5.70;99.90;;;;;;2076947;28;20104;-76
2023/12/27 01:30:30;;;;;;;9.27;2.22;;;5.60;99.90;;;;;;2086496;28;20455;-77
2023/12/27 01:31:31;;;;;;;8.40;2.20;;;5.60;99.90;;;;;;2073821;28;20029;-77
2023/12/27 01:32:32;;;;;;;6.90;2.08;;;5.60;99.90;;;;;;2075676;28;20072;-77
2023/12/27 01:33:33;;;;;;;8.90;2.30;;;5.60;99.90;;;;;;2078862;28;20585;-76
2023/12/27 01:34:37;;;;;;;6.32;2.33;;;5.50;99.90;;;;;;2070224;28;20116;-77
2023/12/27 01:35:37;;;;;;;6.43;2.13;;;5.50;99.90;;;;;;2070802;28;20029;-75
2023/12/27 01:36:38;;;;;;;9.80;2.45;;;5.50;99.90;;;;;;2079477;28;20468;-76
2023/12/27 01:37:39;;;;;;;6.95;2.10;;;5.50;99.90;;;;;;2086828;28;20123;-77
2023/12/27 01:38:41;;;;;;;11.32;2.60;;;5.50;99.90;;;;;;2082900;28;20021;-76
2023/12/27 01:39:41;;;;;;;8.95;2.20;;;5.50;99.90;;;;;;2079058;28;20083;-76
2023/12/27 01:40:49;;;;;;;8.68;2.33;;;5.40;99.90;;;;;;2087816;28;20024;-80
2023/12/27 01:41:50;;;;;;;14.10;2.63;;;5.40;99.90;;;;;;2071456;28;20029;-80
2023/12/27 01:42:51;;;;;;;7.80;2.22;;;5.40;99.90;;;;;;2063242;28;20459;-79
2023/12/27 01:43:52;;;;;;;6.63;1.98;;;5.40;99.90;;;;;;2077940;28;20033;-80
2023/12/27 01:44:52;;;;;;;9.88;2.15;;;5.40;99.90;;;;;;2080525;28;20083;-80
2023/12/27 01:45:53;;;;;;;10.07;2.20;;;5.40;99.90;;;;;;2077630;28;20025;-79
2023/12/27 01:46:54;;;;;;;8.85;1.88;;;5.40;99.90;;;;;;2077949;28;20041;-79
2023/12/27 01:47:55;;;;;;;8.23;1.85;;;5.40;99.90;;;;;;2077061;28;20088;-80
2023/12/27 01:48:57;;;;;;;7.57;1.98;;;5.40;99.90;;;;;;2076474;28;20476;-80
2023/12/27 01:49:58;;;;;;;6.75;2.08;;;5.30;99.90;;;;;;2077276;28;20049;-79
2023/12/27 01:51:00;;;;;;;7.88;2.13;;;5.30;99.90;;;;;;2076915;28;20044;-79
2023/12/27 01:52:02;;;;;;;6.68;1.83;;;5.30;99.90;;;;;;2081145;28;20037;-80
2023/12/27 01:53:02;;;;;;;7.00;2.10;;;5.30;99.90;;;;;;2079616;28;20060;-80
2023/12/27 01:54:03;;;;;;;9.70;1.90;;;5.30;99.90;;;;;;2078947;28;20490;-80
2023/12/27 01:55:04;;;;;;;6.13;1.85;;;5.30;99.90;;;;;;2080033;28;20024;-80
2023/12/27 01:56:06;;;;;;;8.05;1.90;;;5.30;99.90;;;;;;2084644;28;20526;-81
2023/12/27 01:57:07;;;;;;;4.72;1.85;;;5.20;99.90;;;;;;2072192;28;20029;-80
2023/12/27 01:58:10;;;;;;;7.13;1.90;;;5.20;99.90;;;;;;2063907;28;20121;-80
2023/12/27 01:59:12;;;;;;;8.13;1.70;;;5.20;99.90;;;;;;2072229;28;20060;-80
2023/12/27 02:00:14;;;;;;;6.28;1.90;;;5.20;99.90;;;;;;2075204;28;20544;-81
2023/12/27 02:01:15;;;;;;;6.75;2.10;;;5.20;99.90;;;;;;2084038;28;20716;-78
2023/12/27 02:02:15;;;;;;;9.68;2.25;;;5.20;99.90;;;;;;2079654;28;20029;-80
2023/12/27 02:03:17;;;;;;;11.55;1.90;;;5.10;99.90;;;;;;2071824;28;20029;-79
2023/12/27 02:04:18;;;;;;;9.13;2.00;;;5.10;99.90;;;;;;2076247;28;20107;-80
2023/12/27 02:05:19;;;;;;;8.30;2.00;;;5.10;99.90;;;;;;2079293;28;20025;-81
2023/12/27 02:06:22;;;;;;;9.82;2.10;;;5.00;99.90;;;;;;2071964;28;20046;-80
2023/12/27 02:07:23;;;;;;;8.60;1.90;;;5.00;99.90;;;;;;2076418;28;20029;-81
2023/12/27 02:08:24;;;;;;;6.80;1.80;;;5.00;99.90;;;;;;2079499;28;20033;-81
2023/12/27 02:09:26;;;;;;;8.80;1.77;;;5.00;99.90;;;;;;2080673;28;20039;-81
2023/12/27 02:10:27;;;;;;;8.30;1.88;;;5.00;99.90;;;;;;2078370;28;20021;-81
2023/12/27 02:11:27;;;;;;;8.65;1.92;;;5.00;99.90;;;;;;2078780;28;20048;-81
2023/12/27 02:12:30;;;;;;;7.32;1.80;;;5.00;99.90;;;;;;2081037;28;20050;-81
2023/12/27 02:13:30;;;;;;;7.82;1.95;;;5.00;99.90;;;;;;2077741;28;20034;-80
2023/12/27 02:14:31;;;;;;;7.45;2.00;;;5.00;99.90;;;;;;2069325;28;20038;-80
2023/12/27 02:15:32;;;;;;;7.35;1.85;;;5.00;99.90;;;;;;2079203;28;20044;-80
2023/12/27 02:16:34;;;;;;;7.00;2.00;;;4.90;99.90;;;;;;2078131;28;20036;-79
2023/12/27 02:17:35;;;;;;;7.10;1.80;;;4.80;99.90;;;;;;2073124;28;20346;-80
2023/12/27 02:18:36;;;;;;;9.32;2.05;;;4.80;99.90;;;;;;2079345;28;20026;-80
2023/12/27 02:19:37;;;;;;;10.18;2.25;;;4.80;99.90;;;;;;2062444;28;20096;-79
2023/12/27 02:20:39;;;;;;;10.20;2.05;;;4.80;99.90;;;;;;2079168;28;20136;-80
2023/12/27 02:21:40;;;;;;;9.25;2.10;;;4.80;99.90;;;;;;2076836;28;20053;-79
2023/12/27 02:22:44;;;;;;;7.13;2.08;;;4.70;99.90;;;;;;2079770;28;20021;-80
2023/12/27 02:23:48;;;;;;;6.57;2.13;;;4.60;99.90;;;;;;2080326;28;20025;-78
2023/12/27 02:24:51;;;;;;;6.50;1.90;;;4.60;99.90;;;;;;2075627;28;20336;-79
2023/12/27 02:25:52;;;;;;;7.60;1.90;;;4.60;99.90;;;;;;2078807;28;20040;-80
2023/12/27 02:26:53;;;;;;;9.45;2.33;;;4.60;99.90;;;;;;2076405;28;20037;-81
2023/12/27 02:27:54;;;;;;;7.70;2.30;;;4.50;99.90;;;;;;2084916;28;20100;-80
2023/12/27 02:28:54;;;;;;;11.18;2.30;;;4.50;99.90;;;;;;2070251;28;20452;-80
2023/12/27 02:29:55;;;;;;;6.38;2.00;;;4.50;99.90;;;;;;2063102;28;20084;-79
2023/12/27 02:30:55;;;;;;;7.65;2.00;;;4.50;99.90;;;;;;2069055;28;20052;-79
2023/12/27 02:31:56;;;;;;;7.10;2.22;;;4.50;99.90;;;;;;2060833;28;20026;-78
2023/12/27 02:32:56;;;;;;;9.98;2.20;;;4.40;99.90;;;;;;2061806;28;20102;-79
2023/12/27 02:33:58;;;;;;;7.95;2.20;;;4.40;99.90;;;;;;2080165;28;20055;-78
2023/12/27 02:34:59;;;;;;;10.73;2.30;;;4.40;99.90;;;;;;2084601;28;20021;-75
2023/12/27 02:35:59;;;;;;;8.88;2.38;;;4.40;99.90;;;;;;2070308;28;20046;-76
2023/12/27 02:37:00;;;;;;;8.10;2.22;;;4.40;99.90;;;;;;2069322;28;20033;-76
2023/12/27 02:38:01;;;;;;;9.60;2.15;;;4.40;99.90;;;;;;2076805;28;20104;-81
2023/12/27 02:39:01;;;;;;;8.32;2.15;;;4.30;99.90;;;;;;2084579;28;20478;-81
2023/12/27 02:40:03;;;;;;;10.18;2.50;;;4.30;99.90;;;;;;2086653;28;20493;-81
2023/12/27 02:41:04;;;;;;;12.07;2.30;;;4.30;99.90;;;;;;2085890;28;20017;-81
2023/12/27 02:42:05;;;;;;;10.02;2.58;;;4.30;99.90;;;;;;2070614;28;20937;-80
2023/12/27 02:43:06;;;;;;;9.55;2.67;;;4.30;99.90;;;;;;2069483;28;20029;-80
2023/12/27 02:44:08;;;;;;;8.82;2.50;;;4.30;99.90;;;;;;2084305;28;20013;-81
2023/12/27 02:45:09;;;;;;;10.20;2.53;;;4.20;99.90;;;;;;2077803;28;20024;-81
2023/12/27 02:46:09;;;;;;;9.07;3.13;;;4.20;99.90;;;;;;2067679;28;20021;-81
2023/12/27 02:47:10;;;;;;;10.10;2.65;;;4.20;99.90;;;;;;2070446;28;20022;-82
2023/12/27 02:48:11;;;;;;;11.10;2.70;;;4.20;99.90;;;;;;2078061;28;20091;-81
2023/12/27 02:49:11;;;;;;;8.25;2.60;;;4.20;99.90;;;;;;2075482;28;20482;-81
2023/12/27 02:50:12;;;;;;;8.52;2.83;;;4.20;99.90;;;;;;2078591;28;20056;-81
2023/12/27 02:51:12;;;;;;;10.65;2.60;;;4.10;99.90;;;;;;2070471;28;20719;-82
2023/12/27 02:52:13;;;;;;;10.30;2.75;;;4.10;99.90;;;;;;2075647;28;20068;-81
2023/12/27 02:53:15;;;;;;;7.68;2.67;;;4.10;99.90;;;;;;2078263;28;20528;-81
2023/12/27 02:54:15;;;;;;;10.00;2.80;;;4.10;99.90;;;;;;2078677;28;20037;-81
2023/12/27 02:55:16;;;;;;;12.80;2.60;;;4.10;99.90;;;;;;2066880;28;20112;-78
2023/12/27 02:56:17;;;;;;;8.57;2.85;;;4.10;99.90;;;;;;2078940;28;20037;-79
2023/12/27 02:57:18;;;;;;;8.55;2.72;;;4.00;99.90;;;;;;2083064;28;20064;-81
2023/12/27 02:58:18;;;;;;;10.00;2.75;;;4.00;99.90;;;;;;2076089;28;20131;-80
2023/12/27 02:59:20;;;;;;;8.45;2.63;;;3.90;99.90;;;;;;2078629;28;20374;-80
2023/12/27 03:00:21;;;;;;;13.38;2.90;;;3.90;99.90;;;;;;2070057;28;20029;-80
2023/12/27 03:01:21;;;;;;;9.60;2.60;;;3.90;99.90;;;;;;2078559;28;20443;-79
2023/12/27 03:02:22;;;;;;;10.88;2.50;;;3.90;99.90;;;;;;2075857;28;20400;-81
2023/12/27 03:03:24;;;;;;;14.93;2.80;;;3.90;99.90;;;;;;2086737;28;20494;-80
2023/12/27 03:04:24;;;;;;;10.18;2.63;;;3.90;99.90;;;;;;2085689;28;20060;-81
2023/12/27 03:05:25;;;;;;;7.22;2.53;;;3.90;99.90;;;;;;2079242;28;20048;-81
2023/12/27 03:06:25;;;;;;;7.03;2.30;;;4.00;99.90;;;;;;2074251;28;20575;-80
2023/12/27 03:07:26;;;;;;;8.65;2.63;;;3.90;99.90;;;;;;2074556;28;20081;-80
2023/12/27 03:08:26;;;;;;;9.90;2.42;;;3.90;99.90;;;;;;2078437;28;20104;-80
2023/12/27 03:09:27;;;;;;;11.38;2.70;;;3.90;99.90;;;;;;2075746;28;20102;-81
2023/12/27 03:10:27;;;;;;;11.60;2.60;;;3.90;99.90;;;;;;2077034;28;20117;-80
2023/12/27 03:11:30;;;;;;;5.97;2.15;;;3.90;99.90;;;;;;2081969;28;20208;-81
2023/12/27 03:12:31;;;;;;;7.05;2.45;;;3.80;99.90;;;;;;2069906;28;20038;-81
2023/12/27 03:13:33;;;;;;;10.95;2.65;;;3.80;99.90;;;;;;2078423;28;20064;-81
2023/12/27 03:14:33;;;;;;;7.00;2.72;;;3.80;99.90;;;;;;2079130;28;20053;-82
2023/12/27 03:15:34;;;;;;;9.10;2.75;;;3.80;99.90;;;;;;2086113;28;20056;-81
2023/12/27 03:16:35;;;;;;;11.07;2.63;;;3.70;99.90;;;;;;2072115;28;20136;-81
2023/12/27 03:17:36;;;;;;;10.38;2.75;;;3.70;99.90;;;;;;2070340;28;20026;-80
2023/12/27 03:18:38;;;;;;;11.07;2.60;;;3.70;99.90;;;;;;2086113;28;20651;-82
2023/12/27 03:19:38;;;;;;;10.60;2.85;;;3.80;99.90;;;;;;2077068;28;20249;-81
2023/12/27 03:20:39;;;;;;;8.85;2.60;;;3.80;99.90;;;;;;2080069;28;20550;-81
2023/12/27 03:21:39;;;;;;;6.03;2.55;;;3.80;99.90;;;;;;2070415;28;20191;-81
2023/12/27 03:22:40;;;;;;;10.10;2.80;;;3.70;99.90;;;;;;2081257;28;20029;-81
2023/12/27 03:23:41;;;;;;;8.60;2.63;;;3.80;99.90;;;;;;2080248;28;20487;-82
2023/12/27 03:24:41;;;;;;;6.55;2.72;;;3.80;99.90;;;;;;2077555;28;20502;-80
2023/12/27 03:25:42;;;;;;;9.05;2.85;;;3.70;99.90;;;;;;2077461;28;20313;-81
2023/12/27 03:26:42;;;;;;;8.10;2.47;;;3.70;99.90;;;;;;2090443;28;20024;-80
2023/12/27 03:27:43;;;;;;;9.25;2.80;;;3.60;99.90;;;;;;2078844;28;20033;-80
2023/12/27 03:28:43;;;;;;;8.98;2.78;;;3.60;99.90;;;;;;2078092;28;20399;-81
2023/12/27 03:29:44;;;;;;;7.50;2.47;;;3.60;99.90;;;;;;2080521;28;20055;-80
2023/12/27 03:30:45;;;;;;;10.43;2.70;;;3.60;99.90;;;;;;2075922;28;20071;-80
2023/12/27 03:31:46;;;;;;;8.30;3.13;;;3.60;99.90;;;;;;2081147;28;20021;-80
2023/12/27 03:32:47;;;;;;;7.70;2.65;;;3.60;99.90;;;;;;2088470;28;20029;-79
2023/12/27 03:33:47;;;;;;;12.68;3.50;;;3.60;99.90;;;;;;2087960;28;20521;-81
2023/12/27 03:34:48;;;;;;;8.68;2.95;;;3.60;99.90;;;;;;2080966;28;20033;-81
2023/12/27 03:35:48;;;;;;;14.15;3.00;;;3.60;99.90;;;;;;2080966;28;20025;-80
2023/12/27 03:36:49;;;;;;;12.30;2.78;;;3.60;99.90;;;;;;2077237;28;20280;-81
2023/12/27 03:37:50;;;;;;;10.65;3.15;;;3.70;99.90;;;;;;2088404;28;20025;-81
2023/12/27 03:38:50;;;;;;;10.27;2.72;;;3.70;99.90;;;;;;2080006;28;20472;-81
2023/12/27 03:39:51;;;;;;;9.38;2.92;;;3.70;99.90;;;;;;2076311;28;20136;-81
2023/12/27 03:40:52;;;;;;;9.60;2.92;;;3.70;99.90;;;;;;2087858;28;20090;-80
2023/12/27 03:41:53;;;;;;;15.93;4.22;;;3.70;99.90;;;;;;2076851;28;20025;-81
2023/12/27 03:42:54;;;;;;;16.85;3.85;;;3.80;99.90;;;;;;2076684;28;20057;-81
2023/12/27 03:43:58;;;;;;;12.38;3.40;;;3.70;99.90;;;;;;2071905;28;20072;-81
2023/12/27 03:44:59;;;;;;;13.93;3.50;;;3.70;99.90;;;;;;2069179;28;20038;-81
2023/12/27 03:45:59;;;;;;;13.27;3.05;;;3.70;99.90;;;;;;2067704;28;20033;-81
2023/12/27 03:47:00;;;;;;;11.05;2.65;;;3.80;99.90;;;;;;2079308;28;20035;-81
2023/12/27 03:48:01;;;;;;;7.80;2.15;;;3.80;99.90;;;;;;2077402;28;20478;-79
2023/12/27 03:49:02;;;;;;;10.90;2.33;;;3.70;99.90;;;;;;2078607;28;20028;-81
2023/12/27 03:50:04;;;;;;;6.97;2.25;;;3.70;99.90;;;;;;2080374;28;20045;-78
2023/12/27 03:51:04;;;;;;;6.63;2.30;;;3.70;99.90;;;;;;2078725;28;20029;-80
2023/12/27 03:52:05;;;;;;;5.70;2.03;;;3.80;99.90;;;;;;2086270;28;20060;-81
2023/12/27 03:53:06;;;;;;;6.78;2.30;;;3.80;99.90;;;;;;2071760;28;20025;-82
2023/12/27 03:54:07;;;;;;;8.02;2.15;;;3.80;99.90;;;;;;2070594;28;20084;-81
2023/12/27 03:55:08;;;;;;;9.00;2.20;;;3.80;99.90;;;;;;2077477;28;20533;-81
2023/12/27 03:56:10;;;;;;;9.27;2.08;;;3.80;99.90;;;;;;2084744;28;20592;-81
2023/12/27 03:57:11;;;;;;;8.15;1.95;;;3.90;99.90;;;;;;2079867;28;20507;-81
2023/12/27 03:58:11;;;;;;;9.98;2.20;;;3.90;99.90;;;;;;2078707;28;20036;-80
2023/12/27 03:59:12;;;;;;;6.57;1.90;;;3.90;99.90;;;;;;2078232;28;20029;-82
2023/12/27 04:00:13;;;;;;;8.50;2.33;;;3.80;99.90;;;;;;2077003;28;20030;-80
2023/12/27 04:01:23;;;;;;;8.93;2.20;;;3.80;99.90;;;;;;2084404;28;20009;-80
2023/12/27 04:02:23;;;;;;;9.38;2.20;;;3.80;99.90;;;;;;2086508;28;20036;-79
2023/12/27 04:03:24;;;;;;;8.25;2.17;;;3.90;99.90;;;;;;2088066;28;20483;-80
2023/12/27 04:04:24;;;;;;;9.95;2.10;;;3.90;99.90;;;;;;2076466;28;20111;-80
2023/12/27 04:05:25;;;;;;;5.40;2.00;;;3.80;99.90;;;;;;2079443;28;20527;-79
2023/12/27 04:06:26;;;;;;;8.52;1.80;;;3.80;99.90;;;;;;2078877;28;20635;-79
2023/12/27 04:07:28;;;;;;;8.27;2.15;;;3.80;99.90;;;;;;2067917;28;20093;-79
2023/12/27 04:08:29;;;;;;;7.30;2.28;;;3.80;99.90;;;;;;2069267;28;20214;-81
2023/12/27 04:09:29;;;;;;;8.07;2.20;;;3.80;99.90;;;;;;2070708;28;20030;-81
2023/12/27 04:10:31;;;;;;;10.55;2.20;;;3.70;99.90;;;;;;2080340;28;20101;-81
2023/12/27 04:11:32;;;;;;;7.95;2.10;;;3.80;99.90;;;;;;2085904;28;20063;-81
2023/12/27 04:12:33;;;;;;;5.72;2.00;;;3.70;99.90;;;;;;2078164;28;20029;-81
2023/12/27 04:13:34;;;;;;;9.95;2.17;;;3.70;99.90;;;;;;2079962;28;20120;-80
2023/12/27 04:14:35;;;;;;;7.00;2.20;;;3.70;99.90;;;;;;2077706;28;20113;-81
2023/12/27 04:15:35;;;;;;;7.20;2.15;;;3.60;99.90;;;;;;2077684;28;20096;-81
2023/12/27 04:16:36;;;;;;;6.72;2.30;;;3.60;99.90;;;;;;2079359;28;20025;-80
2023/12/27 04:17:36;;;;;;;8.02;2.33;;;3.60;99.90;;;;;;2069923;28;20136;-81
2023/12/27 04:18:37;;;;;;;6.63;2.20;;;3.60;99.90;;;;;;2069924;28;20037;-81
2023/12/27 04:19:38;;;;;;;7.60;2.17;;;3.60;99.90;;;;;;2080311;28;20033;-81
2023/12/27 04:20:38;;;;;;;5.70;2.40;;;3.70;99.90;;;;;;2078552;28;20120;-81
2023/12/27 04:21:41;;;;;;;6.28;2.10;;;3.60;99.90;;;;;;2069196;28;20025;-81
2023/12/27 04:22:42;;;;;;;9.48;2.30;;;3.60;99.90;;;;;;2079111;28;20125;-81
2023/12/27 04:23:43;;;;;;;7.97;2.47;;;3.60;99.90;;;;;;2078993;28;20032;-81
2023/12/27 04:24:43;;;;;;;7.22;2.03;;;3.60;99.90;;;;;;2077135;28;20438;-81
2023/12/27 04:25:44;;;;;;;6.53;2.13;;;3.60;99.90;;;;;;2078787;28;20436;-81
2023/12/27 04:26:44;;;;;;;6.47;2.05;;;3.60;99.90;;;;;;2070134;28;20063;-81
2023/12/27 04:27:45;;;;;;;8.40;2.20;;;3.60;99.90;;;;;;2079385;28;20036;-80
2023/12/27 04:28:45;;;;;;;6.50;2.10;;;3.60;99.90;;;;;;2076862;28;20029;-80
2023/12/27 04:29:46;;;;;;;6.13;2.20;;;3.50;99.90;;;;;;2079901;28;20156;-81
2023/12/27 04:30:47;;;;;;;9.45;2.53;;;3.50;99.90;;;;;;2077038;28;20017;-81
2023/12/27 04:31:47;;;;;;;8.20;2.30;;;3.50;99.90;;;;;;2075879;28;20029;-80
2023/12/27 04:32:48;;;;;;;8.75;2.38;;;3.40;99.90;;;;;;2076693;28;20653;-80
2023/12/27 04:33:49;;;;;;;6.40;2.28;;;3.40;99.90;;;;;;2079712;28;20284;-79
2023/12/27 04:34:50;;;;;;;8.57;2.50;;;3.40;99.90;;;;;;2079858;28;20025;-80
2023/12/27 04:35:51;;;;;;;9.40;2.30;;;3.40;99.90;;;;;;2080347;28;20113;-76
2023/12/27 04:36:52;;;;;;;6.65;2.20;;;3.40;99.90;;;;;;2085132;28;20033;-79
2023/12/27 04:37:52;;;;;;;7.10;2.45;;;3.40;99.90;;;;;;2081401;28;20041;-79
2023/12/27 04:38:56;;;;;;;10.48;2.55;;;3.30;99.90;;;;;;2077823;28;20112;-80
2023/12/27 04:39:56;;;;;;;9.60;2.45;;;3.30;99.90;;;;;;2072536;28;20393;-78
2023/12/27 04:40:59;;;;;;;6.55;2.20;;;3.30;99.90;;;;;;2065083;28;20033;-80
2023/12/27 04:41:59;;;;;;;7.28;2.30;;;3.30;99.90;;;;;;2062260;28;20110;-81
2023/12/27 04:43:00;;;;;;;9.98;2.47;;;3.30;99.90;;;;;;2071489;28;20119;-81
2023/12/27 04:44:00;;;;;;;8.70;2.65;;;3.20;99.90;;;;;;2074091;28;20033;-82
2023/12/27 04:45:02;;;;;;;9.80;2.70;;;3.20;99.90;;;;;;2080383;28;20029;-81
2023/12/27 04:46:03;;;;;;;11.55;2.42;;;3.30;99.90;;;;;;2069578;28;20523;-81
2023/12/27 04:47:04;;;;;;;9.50;2.50;;;3.30;99.90;;;;;;2062263;28;20114;-80
2023/12/27 04:48:05;;;;;;;7.70;2.20;;;3.20;99.90;;;;;;2063798;28;20122;-81
2023/12/27 04:49:05;;;;;;;7.18;2.40;;;3.20;99.90;;;;;;2077831;28;20088;-82
2023/12/27 04:50:06;;;;;;;9.77;2.50;;;3.20;99.90;;;;;;2079623;28;20048;-82
2023/12/27 04:51:07;;;;;;;11.50;2.70;;;3.20;99.90;;;;;;2077741;28;20039;-80
2023/12/27 04:52:09;;;;;;;5.82;2.30;;;3.20;99.90;;;;;;2079697;28;20033;-81
2023/12/27 04:53:09;;;;;;;6.70;2.35;;;3.20;99.90;;;;;;2077760;28;20475;-81
2023/12/27 04:54:11;;;;;;;8.88;2.40;;;3.20;99.90;;;;;;2076959;28;20045;-80
2023/12/27 04:55:11;;;;;;;6.53;1.98;;;3.20;99.90;;;;;;2079392;28;20571;-81
2023/12/27 04:56:12;;;;;;;12.45;2.20;;;3.20;99.90;;;;;;2062015;28;20484;-81
2023/12/27 04:57:13;;;;;;;8.95;2.20;;;3.10;99.90;;;;;;2060597;28;20536;-81
2023/12/27 04:58:13;;;;;;;6.60;2.20;;;3.10;99.90;;;;;;2079483;28;20045;-81
2023/12/27 04:59:14;;;;;;;8.88;2.53;;;3.10;99.90;;;;;;2078394;28;20053;-82
2023/12/27 05:00:15;;;;;;;11.10;2.40;;;3.10;99.90;;;;;;2076698;28;20068;-82
2023/12/27 05:01:16;;;;;;;8.45;2.45;;;3.10;99.90;;;;;;2087659;28;20101;-82
2023/12/27 05:02:17;;;;;;;9.38;2.35;;;3.10;99.90;;;;;;2086851;28;20044;-81
2023/12/27 05:03:17;;;;;;;6.90;2.60;;;3.10;99.90;;;;;;2084277;28;20039;-81
2023/12/27 05:04:18;;;;;;;9.60;2.75;;;3.00;99.90;;;;;;2079215;28;20167;-82
2023/12/27 05:05:19;;;;;;;8.50;2.35;;;3.00;99.90;;;;;;2078739;28;20045;-80
2023/12/27 05:06:20;;;;;;;5.50;2.28;;;3.10;99.90;;;;;;2067579;28;20025;-82
2023/12/27 05:07:20;;;;;;;14.25;2.63;;;3.10;99.90;;;;;;2079556;28;20041;-81
2023/12/27 05:08:21;;;;;;;7.40;2.30;;;3.20;99.90;;;;;;2079714;28;20036;-82
2023/12/27 05:09:22;;;;;;;11.25;2.40;;;3.10;99.90;;;;;;2072670;28;20523;-81
2023/12/27 05:10:22;;;;;;;7.85;2.20;;;3.10;99.90;;;;;;2063545;28;20038;-81
2023/12/27 05:11:23;;;;;;;6.97;2.38;;;3.00;99.90;;;;;;2063220;28;20041;-81
2023/12/27 05:12:24;;;;;;;6.75;2.20;;;3.10;99.90;;;;;;2071417;28;20239;-82
2023/12/27 05:13:24;;;;;;;6.03;2.00;;;3.00;99.90;;;;;;2077763;28;20037;-81
2023/12/27 05:14:25;;;;;;;13.05;2.10;;;3.00;99.90;;;;;;2081072;28;20043;-82
2023/12/27 05:15:25;;;;;;;8.73;2.40;;;3.00;99.90;;;;;;2079590;28;20092;-81
2023/12/27 05:16:26;;;;;;;7.65;2.28;;;2.90;99.90;;;;;;2075645;28;20033;-81
2023/12/27 05:17:26;;;;;;;10.20;2.78;;;2.90;99.90;;;;;;2075499;28;20033;-82
2023/12/27 05:18:27;;;;;;;9.68;2.40;;;2.90;99.90;;;;;;2069903;28;20084;-81
2023/12/27 05:19:28;;;;;;;8.75;2.50;;;2.90;99.90;;;;;;2072552;28;20555;-82
2023/12/27 05:20:28;;;;;;;7.45;2.20;;;2.90;99.90;;;;;;2078428;28;20037;-82